createdAt,value
2022-10-14T00:01:44.035Z,23.98
2022-10-14T00:04:10.493Z,23.60
2022-10-14T00:06:36.873Z,23.95
2022-10-14T00:09:07.094Z,24.73
2022-10-14T00:11:34.519Z,24.70
2022-10-14T00:14:13.383Z,23.77
2022-10-14T00:16:42.038Z,25.25
2022-10-14T00:19:08.965Z,24.60
2022-10-14T00:21:37.784Z,24.30
2022-10-14T00:27:50.843Z,23.20
2022-10-14T00:30:17.300Z,23.00
2022-10-14T00:32:43.710Z,23.95
2022-10-14T00:35:10.343Z,23.48
2022-10-14T00:37:36.831Z,22.83
2022-10-14T00:40:04.860Z,22.90
2022-10-14T00:42:34.467Z,21.70
2022-10-14T00:45:06.340Z,23.60
2022-10-14T00:47:33.054Z,22.35
2022-10-14T00:49:59.625Z,22.33
2022-10-14T00:52:26.162Z,22.85
2022-10-14T00:55:03.670Z,23.52
2022-10-14T00:57:30.636Z,23.83
2022-10-14T01:00:01.856Z,24.20
2022-10-14T01:02:28.254Z,23.52
2022-10-14T01:04:54.650Z,23.52
2022-10-14T01:07:32.315Z,26.30
2022-10-14T01:10:14.291Z,23.60
2022-10-14T01:12:46.668Z,23.98
2022-10-14T01:15:27.145Z,24.17
2022-10-14T01:18:08.691Z,23.52
2022-10-14T01:21:02.945Z,24.42
2022-10-14T01:23:42.748Z,24.17
2022-10-14T01:26:33.954Z,24.10
2022-10-14T01:29:29.714Z,23.65
2022-10-14T01:32:06.653Z,23.63
2022-10-14T01:34:52.445Z,23.15
2022-10-14T01:37:23.022Z,23.92
2022-10-14T01:39:52.351Z,23.92
2022-10-14T01:42:22.563Z,23.48
2022-10-14T01:44:55.725Z,24.63
2022-10-14T01:47:22.937Z,23.73
2022-10-14T01:49:57.937Z,23.67
2022-10-14T01:52:32.485Z,23.63
2022-10-14T01:55:02.165Z,24.23
2022-10-14T01:57:32.415Z,23.55
2022-10-14T01:59:59.515Z,24.80
2022-10-14T02:02:26.170Z,24.05
2022-10-14T02:04:52.583Z,24.23
2022-10-14T02:07:33.975Z,24.88
2022-10-14T02:10:09.727Z,25.30
2022-10-14T02:12:47.045Z,23.80
2022-10-14T02:19:10.541Z,21.67
2022-10-14T02:21:42.320Z,22.50
2022-10-14T02:24:36.114Z,22.75
2022-10-14T02:27:05.611Z,22.40
2022-10-14T02:29:33.219Z,23.33
2022-10-14T02:32:00.139Z,23.35
2022-10-14T02:34:27.303Z,22.85
2022-10-14T02:36:55.032Z,23.92
2022-10-14T02:39:25.978Z,23.38
2022-10-14T02:41:52.366Z,22.42
2022-10-14T02:44:18.839Z,23.08
2022-10-14T02:46:45.254Z,24.55
2022-10-14T02:49:11.700Z,24.45
2022-10-14T02:51:38.266Z,24.33
2022-10-14T02:54:04.662Z,23.70
2022-10-14T02:56:31.115Z,24.20
2022-10-14T02:58:57.478Z,24.30
2022-10-14T03:01:23.954Z,24.70
2022-10-14T03:03:50.399Z,25.85
2022-10-14T03:06:16.861Z,25.13
2022-10-14T03:08:43.279Z,25.27
2022-10-14T03:11:12.897Z,25.42
2022-10-14T03:13:39.335Z,24.95
2022-10-14T03:16:05.869Z,27.35
2022-10-14T03:18:32.277Z,25.10
2022-10-14T03:24:45.920Z,22.85
2022-10-14T03:27:12.379Z,22.23
2022-10-14T03:29:38.801Z,23.40
2022-10-14T03:32:05.343Z,22.48
2022-10-14T03:34:31.783Z,22.70
2022-10-14T03:36:58.239Z,23.17
2022-10-14T03:39:25.416Z,23.38
2022-10-14T03:41:51.975Z,22.73
2022-10-14T03:44:18.365Z,21.67
2022-10-14T03:46:44.814Z,23.13
2022-10-14T03:49:11.291Z,22.35
2022-10-14T03:51:38.156Z,25.33
2022-10-14T03:54:04.691Z,22.67
2022-10-14T03:56:31.123Z,25.02
2022-10-14T03:58:57.563Z,25.27
2022-10-14T04:01:24.059Z,25.55
2022-10-14T04:03:50.967Z,24.48
2022-10-14T04:06:17.612Z,24.27
2022-10-14T04:08:44.446Z,24.65
2022-10-14T04:11:10.948Z,29.10
2022-10-14T04:13:37.336Z,26.40
2022-10-14T04:16:09.244Z,31.55
2022-10-14T04:18:36.287Z,27.58
2022-10-14T04:24:50.224Z,21.92
2022-10-14T04:27:17.382Z,22.55
2022-10-14T04:29:43.833Z,22.60
2022-10-14T04:32:10.230Z,22.52
2022-10-14T04:34:36.623Z,22.15
2022-10-14T04:37:03.321Z,24.27
2022-10-14T04:39:30.006Z,22.65
2022-10-14T04:45:42.924Z,23.73
2022-10-14T04:48:09.385Z,20.75
2022-10-14T04:50:35.756Z,23.33
2022-10-14T04:53:02.321Z,25.70
2022-10-14T04:55:28.701Z,34.70
2022-10-14T05:01:42.193Z,21.77
2022-10-14T05:04:08.566Z,21.67
2022-10-14T05:06:35.337Z,22.27
2022-10-14T05:09:01.809Z,21.85
2022-10-14T05:11:28.196Z,21.52
2022-10-14T05:13:54.566Z,24.08
2022-10-14T05:16:21.012Z,23.67
2022-10-14T05:18:47.386Z,21.75
2022-10-14T05:21:14.089Z,21.30
2022-10-14T05:23:40.530Z,23.23
2022-10-14T05:26:07.045Z,22.17
2022-10-14T05:28:33.447Z,21.35
2022-10-14T05:34:47.196Z,19.98
2022-10-14T05:37:13.578Z,18.98
2022-10-14T05:39:39.968Z,20.73
2022-10-14T05:42:06.356Z,20.33
2022-10-14T05:44:32.920Z,18.30
2022-10-14T05:46:59.335Z,17.75
2022-10-14T05:53:06.336Z,18.65
2022-10-14T05:55:32.717Z,18.42
2022-10-14T05:57:59.163Z,18.60
2022-10-14T06:00:25.979Z,17.98
2022-10-14T06:02:52.551Z,17.70
2022-10-14T06:05:19.101Z,17.65
2022-10-14T06:07:45.494Z,17.15
2022-10-14T06:10:11.926Z,17.77
2022-10-14T06:12:38.371Z,16.05
2022-10-14T06:15:05.274Z,15.82
2022-10-14T06:17:31.682Z,16.50
2022-10-14T06:19:58.050Z,16.10
2022-10-14T06:22:24.701Z,15.38
2022-10-14T06:24:51.225Z,16.10
2022-10-14T06:27:17.608Z,16.40
2022-10-14T06:29:44.001Z,15.98
2022-10-14T06:32:10.472Z,15.73
2022-10-14T06:34:36.909Z,16.58
2022-10-14T06:37:03.334Z,16.08
2022-10-14T06:39:29.734Z,14.23
2022-10-14T06:41:56.139Z,15.70
2022-10-14T06:44:22.548Z,17.08
2022-10-14T06:46:48.927Z,15.80
2022-10-14T06:49:15.323Z,14.10
2022-10-14T06:55:28.317Z,13.85
2022-10-14T06:57:55.027Z,13.30
2022-10-14T07:00:21.424Z,13.85
2022-10-14T07:02:47.814Z,12.63
2022-10-14T07:05:14.238Z,12.57
2022-10-14T07:07:40.653Z,11.77
2022-10-14T07:10:07.353Z,11.00
2022-10-14T07:12:33.738Z,11.60
2022-10-14T07:15:00.219Z,12.63
2022-10-14T07:17:26.612Z,11.38
2022-10-14T07:19:53.005Z,10.38
2022-10-14T07:22:19.648Z,10.32
2022-10-14T07:24:46.325Z,10.00
2022-10-14T07:27:12.738Z,10.38
2022-10-14T07:29:39.186Z,9.73
2022-10-14T07:32:05.626Z,10.15
2022-10-14T07:34:34.117Z,10.68
2022-10-14T07:37:00.820Z,10.57
2022-10-14T07:39:27.620Z,11.25
2022-10-14T07:41:54.143Z,11.60
2022-10-14T07:44:23.564Z,11.10
2022-10-14T07:46:53.055Z,10.10
2022-10-14T07:49:21.134Z,11.00
2022-10-14T07:51:48.042Z,10.82
2022-10-14T07:54:17.385Z,9.93
2022-10-14T07:56:44.799Z,10.27
2022-10-14T07:59:12.141Z,9.40
2022-10-14T08:01:38.760Z,9.25
2022-10-14T08:04:05.426Z,9.15
2022-10-14T08:06:32.185Z,8.57
2022-10-14T08:08:58.603Z,9.20
2022-10-14T08:11:27.284Z,6.18
2022-10-14T08:13:54.760Z,7.72
2022-10-14T08:16:26.578Z,6.93
2022-10-14T08:18:54.880Z,8.02
2022-10-14T08:21:21.466Z,7.03
2022-10-14T08:23:48.158Z,6.07
2022-10-14T08:26:29.744Z,5.93
2022-10-14T08:28:57.252Z,5.15
2022-10-14T08:31:23.783Z,5.50
2022-10-14T08:33:50.406Z,5.13
2022-10-14T08:36:18.104Z,4.80
2022-10-14T08:38:44.663Z,4.40
2022-10-14T08:41:16.970Z,5.07
2022-10-14T08:44:02.530Z,4.57
2022-10-14T08:46:34.821Z,4.95
2022-10-14T08:49:33.031Z,5.50
2022-10-14T08:52:39.099Z,4.93
2022-10-14T08:55:19.806Z,4.25
2022-10-14T08:57:53.271Z,4.43
2022-10-14T09:00:20.441Z,4.80
2022-10-14T09:02:49.670Z,5.20
2022-10-14T09:05:18.650Z,4.53
2022-10-14T09:07:46.272Z,4.72
2022-10-14T09:10:26.313Z,4.53
2022-10-14T09:12:54.190Z,4.18
2022-10-14T09:15:37.286Z,4.53
2022-10-14T09:18:12.328Z,4.80
2022-10-14T09:20:39.739Z,3.92
2022-10-14T09:23:12.751Z,4.47
2022-10-14T09:29:29.429Z,5.75
2022-10-14T09:32:02.760Z,3.88
2022-10-14T09:34:33.133Z,4.05
2022-10-14T09:37:25.574Z,4.38
2022-10-14T09:39:54.567Z,3.78
2022-10-14T09:42:51.653Z,3.60
2022-10-14T09:45:22.529Z,2.88
2022-10-14T09:47:58.861Z,2.60
2022-10-14T09:50:35.469Z,2.90
2022-10-14T09:53:05.355Z,2.50
2022-10-14T09:55:34.507Z,2.13
2022-10-14T09:58:04.620Z,2.88
2022-10-14T10:00:32.618Z,2.70
2022-10-14T10:02:58.982Z,2.03
2022-10-14T10:05:28.367Z,1.98
2022-10-14T10:08:17.535Z,2.38
2022-10-14T10:11:02.012Z,2.13
2022-10-14T10:13:44.957Z,1.70
2022-10-14T10:16:21.695Z,1.70
2022-10-14T10:18:49.033Z,2.25
2022-10-14T10:21:17.889Z,2.15
2022-10-14T10:23:52.220Z,2.33
2022-10-14T10:26:29.240Z,1.42
2022-10-14T10:28:59.594Z,1.55
2022-10-14T10:31:48.197Z,1.30
2022-10-14T10:34:50.752Z,1.55
2022-10-14T10:37:27.488Z,1.40
2022-10-14T10:40:27.178Z,1.83
2022-10-14T10:43:05.778Z,1.73
2022-10-14T10:45:41.672Z,1.50
2022-10-14T10:52:08.612Z,1.27
2022-10-14T10:55:00.716Z,1.00
2022-10-14T10:57:32.068Z,1.27
2022-10-14T11:00:04.239Z,1.25
2022-10-14T11:05:38.146Z,0.90
2022-10-14T11:08:34.953Z,0.95
2022-10-14T11:11:41.939Z,1.13
2022-10-14T11:14:33.386Z,1.00
2022-10-14T11:17:29.845Z,1.40
2022-10-14T11:20:01.978Z,1.20
2022-10-14T11:22:34.495Z,1.75
2022-10-14T11:25:26.315Z,1.35
2022-10-14T11:28:07.827Z,1.10
2022-10-14T11:30:44.163Z,2.03
2022-10-14T11:33:37.442Z,2.20
2022-10-14T11:36:19.942Z,3.17
2022-10-14T11:38:55.384Z,1.40
2022-10-14T11:41:28.574Z,1.27
2022-10-14T11:44:19.156Z,2.05
2022-10-14T11:46:51.565Z,2.83
2022-10-14T11:49:26.355Z,1.60
2022-10-14T11:51:56.115Z,2.92
2022-10-14T11:54:29.602Z,2.10
2022-10-14T11:57:10.690Z,2.00
2022-10-14T11:59:40.421Z,2.13
2022-10-14T12:02:26.236Z,2.47
2022-10-14T12:05:06.465Z,2.65
2022-10-14T12:07:46.908Z,2.90
2022-10-14T12:10:20.376Z,3.30
2022-10-14T12:12:47.178Z,3.38
2022-10-14T12:15:21.650Z,3.30
2022-10-14T12:17:57.880Z,3.25
2022-10-14T12:20:35.985Z,3.47
2022-10-14T12:23:13.062Z,5.32
2022-10-14T12:25:55.433Z,5.45
2022-10-14T12:30:48.298Z,4.88
2022-10-14T12:33:22.511Z,4.95
2022-10-14T12:36:01.393Z,5.07
2022-10-14T12:38:29.789Z,5.05
2022-10-14T12:41:34.631Z,5.57
2022-10-14T12:44:05.210Z,5.93
2022-10-14T12:46:31.679Z,5.53
2022-10-14T12:48:59.692Z,6.00
2022-10-14T12:51:27.220Z,5.93
2022-10-14T12:54:14.409Z,6.25
2022-10-14T12:56:54.470Z,5.63
2022-10-14T12:59:25.419Z,5.97
2022-10-14T13:01:57.793Z,6.25
2022-10-14T13:04:25.032Z,5.93
2022-10-14T13:07:35.715Z,6.40
2022-10-14T13:10:41.658Z,6.47
2022-10-14T13:13:44.688Z,7.32
2022-10-14T13:16:31.045Z,7.65
2022-10-14T13:18:58.589Z,7.10
2022-10-14T13:21:36.779Z,5.43
2022-10-14T13:24:13.825Z,5.78
2022-10-14T13:26:55.444Z,6.13
2022-10-14T13:29:30.820Z,5.35
2022-10-14T13:32:05.067Z,6.88
2022-10-14T13:34:43.797Z,6.95
2022-10-14T13:37:33.105Z,6.10
2022-10-14T13:40:34.341Z,6.93
2022-10-14T13:43:03.045Z,7.10
2022-10-14T13:45:37.124Z,7.20
2022-10-14T13:48:11.446Z,7.82
2022-10-14T13:50:38.271Z,8.85
2022-10-14T13:53:09.855Z,8.07
2022-10-14T13:55:54.794Z,9.60
2022-10-14T13:58:22.597Z,8.80
2022-10-14T14:00:55.056Z,9.77
2022-10-14T14:03:27.353Z,10.23
2022-10-14T14:05:54.067Z,9.82
2022-10-14T14:08:39.726Z,9.43
2022-10-14T14:11:22.311Z,9.52
2022-10-14T14:14:01.401Z,10.15
2022-10-14T14:16:41.975Z,9.60
2022-10-14T14:19:36.410Z,9.80
2022-10-14T14:22:28.253Z,10.35
2022-10-14T14:25:25.019Z,10.30
2022-10-14T14:28:00.513Z,10.43
2022-10-14T14:30:35.259Z,10.02
2022-10-14T14:33:04.319Z,8.68
2022-10-14T14:35:30.791Z,8.77
2022-10-14T14:37:57.275Z,7.00
2022-10-14T14:40:26.330Z,7.28
2022-10-14T14:42:56.244Z,6.93
2022-10-14T14:45:25.604Z,6.53
2022-10-14T14:47:57.035Z,7.03
2022-10-14T14:50:33.534Z,7.00
2022-10-14T14:53:07.208Z,7.10
2022-10-14T14:55:44.925Z,6.57
2022-10-14T14:58:28.361Z,7.43
2022-10-14T15:00:55.120Z,7.68
2022-10-14T15:03:30.711Z,6.90
2022-10-14T15:06:03.345Z,6.63
2022-10-14T15:08:32.425Z,6.75
2022-10-14T15:11:00.126Z,6.30
2022-10-14T15:13:28.350Z,6.05
2022-10-14T15:15:55.059Z,6.50
2022-10-14T15:18:30.576Z,5.88
2022-10-14T15:21:14.976Z,6.60
2022-10-14T15:23:50.466Z,5.28
2022-10-14T15:26:34.695Z,5.43
2022-10-14T15:29:05.126Z,5.40
2022-10-14T15:31:31.877Z,5.45
2022-10-14T15:33:58.308Z,5.43
2022-10-14T15:36:32.804Z,5.22
2022-10-14T15:39:01.422Z,5.18
2022-10-14T15:41:28.712Z,5.00
2022-10-14T15:43:55.093Z,5.25
2022-10-14T15:46:40.608Z,4.93
2022-10-14T15:49:15.830Z,4.88
2022-10-14T15:51:42.311Z,4.85
2022-10-14T15:54:12.441Z,4.55
2022-10-14T15:56:39.320Z,7.78
2022-10-14T15:59:06.008Z,38.15
2022-10-14T16:01:35.295Z,7.65
2022-10-14T16:04:03.723Z,5.50
2022-10-14T16:06:32.234Z,5.57
2022-10-14T16:08:58.831Z,4.80
2022-10-14T16:11:29.966Z,12.27
2022-10-14T16:13:56.802Z,6.28
2022-10-14T16:16:37.820Z,4.75
2022-10-14T16:19:04.842Z,4.68
2022-10-14T16:21:31.326Z,3.70
2022-10-14T16:24:00.688Z,3.65
2022-10-14T16:26:27.340Z,4.00
2022-10-14T16:28:53.907Z,4.35
2022-10-14T16:31:21.232Z,4.30
2022-10-14T16:33:51.352Z,4.18
2022-10-14T16:36:17.755Z,4.18
2022-10-14T16:38:44.161Z,4.40
2022-10-14T16:41:11.187Z,4.18
2022-10-14T16:43:37.593Z,4.35
2022-10-14T16:46:05.466Z,4.53
2022-10-14T16:48:35.605Z,4.47
2022-10-14T16:51:02.463Z,4.45
2022-10-14T16:53:41.331Z,4.47
2022-10-14T16:56:33.970Z,4.50
2022-10-14T16:59:00.915Z,4.45
2022-10-14T17:01:27.910Z,5.25
2022-10-14T17:03:55.773Z,5.07
2022-10-14T17:06:25.936Z,4.85
2022-10-14T17:08:52.577Z,5.00
2022-10-14T17:11:19.478Z,5.72
2022-10-14T17:13:45.945Z,5.07
2022-10-14T17:16:12.370Z,5.82
2022-10-14T17:18:38.804Z,6.18
2022-10-14T17:21:07.224Z,6.00
2022-10-14T17:23:35.268Z,5.60
2022-10-14T17:26:02.396Z,5.78
2022-10-14T17:28:29.960Z,5.63
2022-10-14T17:30:57.096Z,6.10
2022-10-14T17:33:24.447Z,6.15
2022-10-14T17:35:56.858Z,6.57
2022-10-14T17:38:24.814Z,7.68
2022-10-14T17:40:51.397Z,26.70
2022-10-14T17:43:17.928Z,23.55
2022-10-14T17:45:44.288Z,27.40
2022-10-14T17:48:10.637Z,65.57
2022-10-14T17:50:37.295Z,75.43
2022-10-14T17:53:03.998Z,59.55
2022-10-14T17:55:30.431Z,28.50
2022-10-14T17:57:56.785Z,52.15
2022-10-14T18:00:23.236Z,42.47
2022-10-14T18:02:49.571Z,46.67
2022-10-14T18:05:16.358Z,59.47
2022-10-14T18:07:42.705Z,37.60
2022-10-14T18:10:10.000Z,21.77
2022-10-14T18:12:36.368Z,19.10
2022-10-14T18:15:02.723Z,24.58
2022-10-14T18:17:29.235Z,24.33
2022-10-14T18:19:55.615Z,19.52
2022-10-14T18:22:22.016Z,22.35
2022-10-14T18:24:48.382Z,13.88
2022-10-14T18:27:14.733Z,13.68
2022-10-14T18:29:41.319Z,16.27
2022-10-14T18:32:07.723Z,15.90
2022-10-14T18:34:34.113Z,15.90
2022-10-14T18:37:00.571Z,18.88
2022-10-14T18:39:26.936Z,11.93
2022-10-14T18:41:53.304Z,12.60
2022-10-14T18:44:19.713Z,13.90
2022-10-14T18:46:47.455Z,14.27
2022-10-14T18:49:13.853Z,14.23
2022-10-14T18:51:40.909Z,14.05
2022-10-14T18:54:18.633Z,15.27
2022-10-14T18:56:45.546Z,14.90
2022-10-14T18:59:15.159Z,16.92
2022-10-14T19:01:42.069Z,14.90
2022-10-14T19:04:12.847Z,15.35
2022-10-14T19:06:39.428Z,16.23
2022-10-14T19:09:05.876Z,14.68
2022-10-14T19:11:33.887Z,18.63
2022-10-14T19:14:03.543Z,19.52
2022-10-14T19:16:32.253Z,18.38
2022-10-14T19:19:04.208Z,17.75
2022-10-14T19:21:31.077Z,17.25
2022-10-14T19:23:59.000Z,15.93
2022-10-14T19:26:27.212Z,15.80
2022-10-14T19:28:53.832Z,12.93
2022-10-14T19:31:25.424Z,13.27
2022-10-14T19:33:53.110Z,14.82
2022-10-14T19:36:21.219Z,15.73
2022-10-14T19:38:52.020Z,14.93
2022-10-14T19:41:18.857Z,15.35
2022-10-14T19:43:45.274Z,15.25
2022-10-14T19:46:13.288Z,15.18
2022-10-14T19:48:39.744Z,15.05
2022-10-14T19:51:09.902Z,14.38
2022-10-14T19:53:37.157Z,14.63
2022-10-14T19:56:11.424Z,15.07
2022-10-14T19:58:42.273Z,15.23
2022-10-14T20:01:13.763Z,16.48
2022-10-14T20:03:40.325Z,16.15
2022-10-14T20:06:07.611Z,15.60
2022-10-14T20:08:34.229Z,15.60
2022-10-14T20:11:08.352Z,16.85
2022-10-14T20:13:34.959Z,16.25
2022-10-14T20:16:02.296Z,16.85
2022-10-14T20:18:33.297Z,16.63
2022-10-14T20:21:01.171Z,18.17
2022-10-14T20:23:27.908Z,18.23
2022-10-14T20:26:02.436Z,17.90
2022-10-14T20:28:28.921Z,17.67
2022-10-14T20:30:55.922Z,18.00
2022-10-14T20:33:22.323Z,17.08
2022-10-14T20:35:48.681Z,18.90
2022-10-14T20:38:15.037Z,17.30
2022-10-14T20:40:41.413Z,16.85
2022-10-14T20:43:07.776Z,17.65
2022-10-14T20:45:34.193Z,16.95
2022-10-14T20:48:00.585Z,17.27
2022-10-14T20:50:26.988Z,16.20
2022-10-14T20:52:53.338Z,17.15
2022-10-14T20:55:19.710Z,16.92
2022-10-14T20:57:46.246Z,16.85
2022-10-14T21:00:13.219Z,15.77
2022-10-14T21:02:39.661Z,17.60
2022-10-14T21:05:06.213Z,17.00
2022-10-14T21:07:32.559Z,18.75
2022-10-14T21:09:58.922Z,18.13
2022-10-14T21:12:26.022Z,16.95
2022-10-14T21:14:52.731Z,16.95
2022-10-14T21:17:19.258Z,17.48
2022-10-14T21:19:47.733Z,17.33
2022-10-14T21:22:14.557Z,18.40
2022-10-14T21:24:41.623Z,16.00
2022-10-14T21:27:07.998Z,16.38
2022-10-14T21:29:34.372Z,15.27
2022-10-14T21:32:02.460Z,15.25
2022-10-14T21:34:29.981Z,16.02
2022-10-14T21:36:56.807Z,15.15
2022-10-14T21:39:26.140Z,15.55
2022-10-14T21:41:52.551Z,13.30
2022-10-14T21:44:20.885Z,16.58
2022-10-14T21:46:48.248Z,15.05
2022-10-14T21:49:14.973Z,15.75
2022-10-14T21:51:41.483Z,15.77
2022-10-14T21:54:10.759Z,15.38
2022-10-14T21:56:37.112Z,15.13
2022-10-14T21:59:04.155Z,15.80
2022-10-14T22:01:30.596Z,15.57
2022-10-14T22:04:03.721Z,14.52
2022-10-14T22:06:31.652Z,14.73
2022-10-14T22:08:59.495Z,17.88
2022-10-14T22:11:31.739Z,16.40
2022-10-14T22:16:25.666Z,16.33
2022-10-14T22:18:53.677Z,15.90
2022-10-14T22:21:22.565Z,16.40
2022-10-14T22:23:49.540Z,15.73
2022-10-14T22:26:19.131Z,15.60
2022-10-14T22:28:45.716Z,15.73
2022-10-14T22:31:15.084Z,15.55
2022-10-14T22:33:42.421Z,14.98
2022-10-14T22:36:11.586Z,14.48
2022-10-14T22:38:39.279Z,14.98
2022-10-14T22:41:06.578Z,15.43
2022-10-14T22:43:34.130Z,14.77
2022-10-14T22:46:02.133Z,14.32
2022-10-14T22:48:29.813Z,14.20
2022-10-14T22:50:56.770Z,13.98
2022-10-14T22:53:23.412Z,13.35
2022-10-14T22:55:53.581Z,12.10
2022-10-14T22:58:19.969Z,12.80
2022-10-14T23:00:46.433Z,11.75
2022-10-14T23:03:13.273Z,15.40
2022-10-14T23:05:39.690Z,12.32
2022-10-14T23:08:11.312Z,12.30
2022-10-14T23:10:38.700Z,13.88
2022-10-14T23:13:05.549Z,12.63
2022-10-14T23:15:32.131Z,13.30
2022-10-14T23:17:58.487Z,15.07
2022-10-14T23:20:24.864Z,16.10
2022-10-14T23:22:51.460Z,17.05
2022-10-14T23:25:17.918Z,17.85
2022-10-14T23:27:44.352Z,17.00
2022-10-14T23:30:11.069Z,16.42
2022-10-14T23:32:37.599Z,15.15
2022-10-14T23:35:04.210Z,14.02
2022-10-14T23:37:30.611Z,15.00
2022-10-14T23:39:56.959Z,16.80
2022-10-14T23:42:23.289Z,15.52
2022-10-14T23:44:49.638Z,19.00
2022-10-14T23:47:16.560Z,17.75
2022-10-14T23:49:42.928Z,16.55
2022-10-14T23:52:09.507Z,15.32
2022-10-14T23:54:36.024Z,14.38
2022-10-14T23:57:02.367Z,14.27
2022-10-14T23:59:28.720Z,13.75
